Current Conditions
Clear
Conditions



Pressure
1016.92 (hPa) - 30.03 (inHG)
Visibility

10.0 (km) - 6.2 (miles)
   Temperature
22  °C
72°F
9  °C
Dewpoint
44  %
 Humidity
   Wind Speed
8  km/h
4  kts
5  mph
2.2  m/s
   Wind Direction
 310°
North West
   Airport Data
LFQB
Location Troyes-Barberey 50 km (31.08 mi)
Metar :LFQB 231600Z AUTO 31004KT 270V350 CAVOK 22/09 Q1017
Thu 23rd May 18:00 pm
   Raw Metar Info
Raw METAR is the most common format in the world for the transmission of observational weather data. It is highly standardized through the International Civil Aviation Organization (ICAO), which allows it to be understood throughout most of the world.
   API Info
Data Provided by
https://www.checkwx.com/weather/LFQB
   © Info
CSS/SVG/PHP scripts were developed by weather34.com for use in the weather34 template © 2015-2019

Guide Info provided by Metar-Wikipedia